Sterling/Rock Falls, Illinois
Current Conditions -  °F | °C
As of 11:15 AM on Friday 24 Oct 2014 (Local Time) from KSQI Reporting Station
Overcast Overcast  
Wind Chill: 11°   Ceiling: 200
Heat Index: 11°   Visibility: 1mi
Dew Point:   Wind: 0mph
Humidity: 88%   Direction: NA
Pressure: 30.08"   Gusts: NA
Location:  41.73°N, 89.68°W
Report Text: KSQI 241615Z AUTO 00000KT 1SM OVC002 11/09 A3008 RMK AO1
Loading
Personal Weather Stations






























Interactive Weather Map
Tropical Storm Tracking
New forecast layout! Learn more

10-Day Weather Forecast

Advertisements
Track Severe Weather on mobile